createdAt,value
2023-02-02T00:00:46.000Z,37.4
2023-02-02T00:01:56.925Z,37.4
2023-02-02T00:03:07.038Z,37.4
2023-02-02T00:04:16.182Z,37.4
2023-02-02T00:05:25.000Z,37.4
2023-02-02T00:06:35.000Z,37.4
2023-02-02T00:07:45.547Z,37.4
2023-02-02T00:08:55.000Z,37.4
2023-02-02T00:10:05.000Z,37.4
2023-02-02T00:11:15.895Z,37.4
2023-02-02T00:12:26.000Z,37.4
2023-02-02T00:13:36.000Z,37.4
2023-02-02T00:14:46.000Z,37.4
2023-02-02T00:15:56.000Z,37.4
2023-02-02T00:17:06.466Z,37.4
2023-02-02T00:18:16.580Z,37.4
2023-02-02T00:19:26.000Z,37.4
2023-02-02T00:20:35.000Z,37.4
2023-02-02T00:21:45.941Z,37.4
2023-02-02T00:22:56.067Z,37.4
2023-02-02T00:24:06.000Z,37.4
2023-02-02T00:25:16.000Z,37.4
2023-02-02T00:26:26.000Z,37.4
2023-02-02T00:27:36.000Z,37.4
2023-02-02T00:28:45.000Z,37.4
2023-02-02T00:29:54.000Z,37.5
2023-02-02T00:31:03.000Z,37.4
2023-02-02T00:32:13.000Z,37.5
2023-02-02T00:33:23.000Z,37.5
2023-02-02T00:34:33.000Z,37.5
2023-02-02T00:35:43.000Z,37.5
2023-02-02T00:36:53.541Z,37.5
2023-02-02T00:38:03.660Z,37.5
2023-02-02T00:39:13.000Z,37.5
2023-02-02T00:40:23.000Z,37.5
2023-02-02T00:41:34.000Z,37.5
2023-02-02T00:42:44.000Z,37.5
2023-02-02T00:43:54.000Z,37.5
2023-02-02T00:45:04.000Z,37.5
2023-02-02T00:46:14.464Z,37.5
2023-02-02T00:47:23.000Z,37.5
2023-02-02T00:48:33.711Z,37.5
2023-02-02T00:49:43.000Z,37.5
2023-02-02T00:50:53.000Z,37.5
2023-02-02T00:52:04.055Z,37.5
2023-02-02T00:53:14.000Z,37.5
2023-02-02T00:54:24.000Z,37.5
2023-02-02T00:55:33.000Z,37.5
2023-02-02T00:56:42.000Z,37.5
2023-02-02T00:57:51.705Z,37.5
2023-02-02T00:59:00.000Z,37.5
2023-02-02T01:00:10.000Z,37.5
2023-02-02T01:01:21.000Z,37.5
2023-02-02T01:02:31.000Z,37.5
2023-02-02T01:03:41.301Z,37.5
2023-02-02T01:04:51.420Z,37.5
2023-02-02T01:06:01.000Z,37.5
2023-02-02T01:07:11.656Z,37.5
2023-02-02T01:08:21.000Z,37.6
2023-02-02T01:09:31.000Z,37.6
2023-02-02T01:10:42.000Z,37.6
2023-02-02T01:11:52.118Z,37.6
2023-02-02T01:13:02.239Z,37.6
2023-02-02T01:14:11.365Z,37.6
2023-02-02T01:15:21.483Z,37.6
2023-02-02T01:16:31.000Z,37.6
2023-02-02T01:17:41.000Z,37.6
2023-02-02T01:18:51.000Z,37.6
2023-02-02T01:20:01.000Z,37.6
2023-02-02T01:21:12.000Z,37.6
2023-02-02T01:22:21.197Z,37.6
2023-02-02T01:23:30.000Z,37.6
2023-02-02T01:24:39.000Z,37.6
2023-02-02T01:25:48.000Z,37.6
2023-02-02T01:26:58.000Z,37.6
2023-02-02T01:28:08.835Z,37.6
2023-02-02T01:29:17.000Z,37.6
2023-02-02T01:30:27.000Z,37.6
2023-02-02T01:31:37.226Z,37.6
2023-02-02T01:32:47.000Z,37.6
2023-02-02T01:33:57.000Z,37.6
2023-02-02T01:35:07.578Z,37.6
2023-02-02T01:36:17.000Z,37.6
2023-02-02T01:37:27.812Z,37.6
2023-02-02T01:38:37.937Z,37.7
2023-02-02T01:39:48.000Z,37.7
2023-02-02T01:40:58.000Z,37.6
2023-02-02T01:42:08.278Z,37.6
2023-02-02T01:43:18.000Z,37.7
2023-02-02T01:44:28.501Z,37.7
2023-02-02T01:45:37.000Z,37.7
2023-02-02T01:46:47.000Z,37.8
2023-02-02T01:47:57.000Z,37.7
2023-02-02T01:49:07.000Z,37.8
2023-02-02T01:50:18.000Z,37.8
2023-02-02T01:51:28.000Z,37.7
2023-02-02T01:52:38.329Z,37.8
2023-02-02T01:53:47.470Z,37.8
2023-02-02T01:54:56.000Z,37.8
2023-02-02T01:56:05.757Z,37.8
2023-02-02T01:57:14.882Z,37.8
2023-02-02T01:58:25.000Z,37.8
2023-02-02T01:59:35.000Z,37.8
2023-02-02T02:00:45.225Z,37.8
2023-02-02T02:01:55.000Z,37.8
2023-02-02T02:03:04.000Z,37.8
2023-02-02T02:04:14.000Z,37.8
2023-02-02T02:05:24.722Z,37.8
2023-02-02T02:06:34.830Z,37.8
2023-02-02T02:07:44.941Z,37.8
2023-02-02T02:08:55.000Z,37.8
2023-02-02T02:10:05.000Z,37.8
2023-02-02T02:11:15.000Z,37.8
2023-02-02T02:12:25.000Z,37.9
2023-02-02T02:13:35.000Z,37.9
2023-02-02T02:14:45.000Z,37.9
2023-02-02T02:15:55.000Z,37.9
2023-02-02T02:17:05.000Z,37.9
2023-02-02T02:18:15.000Z,37.9
2023-02-02T02:19:25.132Z,37.9
2023-02-02T02:20:34.000Z,37.9
2023-02-02T02:21:43.396Z,37.9
2023-02-02T02:22:52.531Z,37.9
2023-02-02T02:24:01.000Z,37.9
2023-02-02T02:25:11.785Z,37.9
2023-02-02T02:26:21.000Z,37.9
2023-02-02T02:27:32.000Z,37.9
2023-02-02T02:28:42.132Z,37.9
2023-02-02T02:29:52.247Z,37.9
2023-02-02T02:31:02.360Z,37.9
2023-02-02T02:32:12.484Z,37.9
2023-02-02T02:33:22.000Z,37.9
2023-02-02T02:34:32.707Z,37.9
2023-02-02T02:35:42.823Z,37.9
2023-02-02T02:36:52.944Z,37.9
2023-02-02T02:38:03.000Z,37.9
2023-02-02T02:39:12.192Z,37.9
2023-02-02T02:40:22.301Z,37.9
2023-02-02T02:41:32.000Z,37.9
2023-02-02T02:42:42.532Z,37.9
2023-02-02T02:43:52.655Z,37.9
2023-02-02T02:45:02.772Z,37.9
2023-02-02T02:46:12.000Z,37.9
2023-02-02T02:47:22.000Z,38
2023-02-02T02:48:31.155Z,38
2023-02-02T02:49:40.000Z,37.9
2023-02-02T02:50:49.000Z,37.9
2023-02-02T02:51:59.548Z,37.9
2023-02-02T02:53:09.000Z,38
2023-02-02T02:54:19.000Z,38
2023-02-02T02:55:29.000Z,38
2023-02-02T02:56:40.000Z,38
2023-02-02T02:57:50.133Z,38
2023-02-02T02:59:00.000Z,38
2023-02-02T03:00:10.000Z,38
2023-02-02T03:01:20.000Z,38
2023-02-02T03:02:30.000Z,38
2023-02-02T03:03:40.000Z,38
2023-02-02T03:04:50.000Z,38
2023-02-02T03:05:59.000Z,38
2023-02-02T03:07:10.067Z,38
2023-02-02T03:08:20.000Z,38
2023-02-02T03:09:30.307Z,38
2023-02-02T03:10:40.000Z,38
2023-02-02T03:11:50.537Z,38
2023-02-02T03:13:00.000Z,38
2023-02-02T03:14:09.000Z,38
2023-02-02T03:15:18.000Z,38
2023-02-02T03:16:28.000Z,38
2023-02-02T03:17:37.202Z,38
2023-02-02T03:18:47.317Z,38
2023-02-02T03:19:57.000Z,38
2023-02-02T03:21:07.000Z,38
2023-02-02T03:22:17.000Z,38
2023-02-02T03:23:27.773Z,38
2023-02-02T03:24:37.000Z,38
2023-02-02T03:25:48.000Z,38
2023-02-02T03:26:58.000Z,38
2023-02-02T03:28:08.000Z,38
2023-02-02T03:29:18.000Z,38
2023-02-02T03:30:28.469Z,38.1
2023-02-02T03:31:38.585Z,38.1
2023-02-02T03:32:47.000Z,38.1
2023-02-02T03:33:57.000Z,38.1
2023-02-02T03:35:07.000Z,38.1
2023-02-02T03:36:18.000Z,38.1
2023-02-02T03:37:28.197Z,38.1
2023-02-02T03:38:38.000Z,38.1
2023-02-02T03:39:48.000Z,38.1
2023-02-02T03:40:57.553Z,38.1
2023-02-02T03:42:06.000Z,38.1
2023-02-02T03:43:16.803Z,38.1
2023-02-02T03:44:25.000Z,38.1
2023-02-02T03:45:35.000Z,38.1
2023-02-02T03:46:45.000Z,38.1
2023-02-02T03:47:55.000Z,38.1
2023-02-02T03:49:05.000Z,38.1
2023-02-02T03:50:15.000Z,38.1
2023-02-02T03:51:25.000Z,38.1
2023-02-02T03:52:35.770Z,38.1
2023-02-02T03:53:45.000Z,38.1
2023-02-02T03:54:56.000Z,38.1
2023-02-02T03:56:06.000Z,38.1
2023-02-02T03:57:16.000Z,38.2
2023-02-02T03:58:26.351Z,38.2
2023-02-02T03:59:36.000Z,38.2
2023-02-02T04:00:45.000Z,38.2
2023-02-02T04:01:55.717Z,38.2
2023-02-02T04:03:05.831Z,38.2
2023-02-02T04:04:15.000Z,38.2
2023-02-02T04:05:26.065Z,38.2
2023-02-02T04:06:36.000Z,38.2
2023-02-02T04:08:56.000Z,38.2
2023-02-02T04:10:05.000Z,38.2
2023-02-02T04:11:14.000Z,38.2
2023-02-02T04:12:23.000Z,38.2
2023-02-02T04:13:32.000Z,38.2
2023-02-02T04:14:43.000Z,38.2
2023-02-02T04:15:53.000Z,38.2
2023-02-02T04:17:03.000Z,38.2
2023-02-02T04:18:13.430Z,38.2
2023-02-02T04:19:23.536Z,38.2
2023-02-02T04:20:33.000Z,38.2
2023-02-02T04:21:43.000Z,38.2
2023-02-02T04:22:53.884Z,38.2
2023-02-02T04:24:04.000Z,38.2
2023-02-02T04:25:14.114Z,38.2
2023-02-02T04:26:24.000Z,38.2
2023-02-02T04:27:34.000Z,38.2
2023-02-02T04:28:43.482Z,38.2
2023-02-02T04:29:53.000Z,38.2
2023-02-02T04:31:03.000Z,38.3
2023-02-02T04:32:13.000Z,38.3
2023-02-02T04:33:23.944Z,38.2
2023-02-02T04:34:34.000Z,38.3
2023-02-02T04:35:44.000Z,38.3
2023-02-02T04:36:53.000Z,38.3
2023-02-02T04:38:02.452Z,38.3
2023-02-02T04:39:12.000Z,38.3
2023-02-02T04:40:21.000Z,38.3
2023-02-02T04:41:30.000Z,38.3
2023-02-02T04:42:40.000Z,38.3
2023-02-02T04:43:51.000Z,38.3
2023-02-02T04:45:01.188Z,38.3
2023-02-02T04:46:11.000Z,38.3
2023-02-02T04:47:21.000Z,38.3
2023-02-02T04:48:31.000Z,38.3
2023-02-02T04:49:41.000Z,38.3
2023-02-02T04:50:51.000Z,38.3
2023-02-02T04:52:01.893Z,38.3
2023-02-02T04:53:11.997Z,38.3
2023-02-02T04:54:22.130Z,38.4
2023-02-02T04:55:32.000Z,38.4
2023-02-02T04:56:41.000Z,38.4
2023-02-02T04:57:51.000Z,38.4
2023-02-02T04:59:01.000Z,38.4
2023-02-02T05:00:11.000Z,38.4
2023-02-02T05:01:21.000Z,38.4
2023-02-02T05:02:31.000Z,38.4
2023-02-02T05:03:42.000Z,38.4
2023-02-02T05:04:51.000Z,38.4
2023-02-02T05:06:00.000Z,38.4
2023-02-02T05:07:10.000Z,38.4
2023-02-02T05:08:20.000Z,38.4
2023-02-02T05:09:29.000Z,38.4
2023-02-02T05:10:38.000Z,38.4
2023-02-02T05:11:48.000Z,38.4
2023-02-02T05:12:59.000Z,38.4
2023-02-02T05:14:09.000Z,38.4
2023-02-02T05:15:19.000Z,38.4
2023-02-02T05:16:29.419Z,38.4
2023-02-02T05:17:39.534Z,38.4
2023-02-02T05:18:49.000Z,38.4
2023-02-02T05:19:59.767Z,38.4
2023-02-02T05:21:09.000Z,38.4
2023-02-02T05:22:20.000Z,38.4
2023-02-02T05:23:30.000Z,38.4
2023-02-02T05:24:40.229Z,38.4
2023-02-02T05:25:49.000Z,38.5
2023-02-02T05:26:59.481Z,38.5
2023-02-02T05:28:09.000Z,38.5
2023-02-02T05:29:19.747Z,38.5
2023-02-02T05:30:29.827Z,38.5
2023-02-02T05:31:39.000Z,38.5
2023-02-02T05:32:50.000Z,38.5
2023-02-02T05:33:59.000Z,38.5
2023-02-02T05:35:08.000Z,38.5
2023-02-02T05:36:18.000Z,38.5
2023-02-02T05:37:28.000Z,38.5
2023-02-02T05:38:38.690Z,38.5
2023-02-02T05:39:48.811Z,38.5
2023-02-02T05:40:58.000Z,38.5
2023-02-02T05:42:09.000Z,38.5
2023-02-02T05:43:19.000Z,38.6
2023-02-02T05:44:29.000Z,38.6
2023-02-02T05:45:39.376Z,38.6
2023-02-02T05:46:49.498Z,38.6
2023-02-02T05:47:59.611Z,38.6
2023-02-02T05:49:09.733Z,38.6
2023-02-02T05:50:18.000Z,38.6
2023-02-02T05:51:28.000Z,38.6
2023-02-02T05:52:39.000Z,38.6
2023-02-02T05:53:49.000Z,38.6
2023-02-02T05:54:59.000Z,38.6
2023-02-02T05:56:09.433Z,38.6
2023-02-02T05:57:18.000Z,38.6
2023-02-02T05:58:27.717Z,38.6
2023-02-02T05:59:36.000Z,38.6
2023-02-02T06:00:45.000Z,38.6
2023-02-02T06:01:55.000Z,38.7
2023-02-02T06:03:05.000Z,38.7
2023-02-02T06:04:14.382Z,38.9
2023-02-02T06:05:23.000Z,38.9
2023-02-02T06:06:33.000Z,39
2023-02-02T06:07:43.000Z,39.1
2023-02-02T06:08:53.000Z,39.2
2023-02-02T06:10:03.000Z,39.3
2023-02-02T06:11:14.000Z,39.3
2023-02-02T06:12:24.000Z,39.5
2023-02-02T06:13:34.000Z,39.5
2023-02-02T06:14:44.435Z,39.6
2023-02-02T06:15:54.000Z,39.6
2023-02-02T06:17:04.000Z,39.7
2023-02-02T06:18:14.790Z,39.7
2023-02-02T06:19:24.000Z,39.7
2023-02-02T06:20:34.000Z,39.8
2023-02-02T06:21:44.000Z,39.9
2023-02-02T06:22:54.000Z,39.9
2023-02-02T06:24:04.000Z,40
2023-02-02T06:25:14.502Z,40
2023-02-02T06:26:24.000Z,40
2023-02-02T06:27:34.000Z,40
2023-02-02T06:28:43.000Z,40.1
2023-02-02T06:29:53.000Z,40.1
2023-02-02T06:31:03.120Z,40
2023-02-02T06:32:13.000Z,40
2023-02-02T06:33:23.000Z,40
2023-02-02T06:34:33.000Z,40
2023-02-02T06:35:43.000Z,40
2023-02-02T06:36:53.000Z,40
2023-02-02T06:38:03.000Z,40
2023-02-02T06:39:13.933Z,40
2023-02-02T06:40:24.000Z,40
2023-02-02T06:41:34.000Z,39.9
2023-02-02T06:42:44.000Z,39.9
2023-02-02T06:43:54.000Z,39.9
2023-02-02T06:45:03.539Z,39.9
2023-02-02T06:46:13.000Z,39.9
2023-02-02T06:47:23.000Z,39.9
2023-02-02T06:48:33.878Z,39.9
2023-02-02T06:49:43.000Z,39.8
2023-02-02T06:50:54.103Z,39.8
2023-02-02T06:52:04.000Z,39.8
2023-02-02T06:53:13.000Z,39.8
2023-02-02T06:54:22.000Z,39.8
2023-02-02T06:55:31.000Z,39.8
2023-02-02T06:56:41.000Z,39.8
2023-02-02T06:57:50.000Z,39.8
2023-02-02T06:59:00.000Z,39.8
2023-02-02T07:00:10.000Z,39.8
2023-02-02T07:01:20.258Z,39.7
2023-02-02T07:02:30.000Z,39.7
2023-02-02T07:03:40.491Z,39.7
2023-02-02T07:04:50.607Z,39.7
2023-02-02T07:06:00.000Z,39.7
2023-02-02T07:07:10.000Z,39.7
2023-02-02T07:08:20.000Z,39.7
2023-02-02T07:09:31.000Z,39.7
2023-02-02T07:10:41.189Z,39.7
2023-02-02T07:11:51.305Z,39.7
2023-02-02T07:13:01.000Z,39.7
2023-02-02T07:14:10.000Z,39.7
2023-02-02T07:15:20.664Z,39.7
2023-02-02T07:16:30.000Z,39.7
2023-02-02T07:17:40.000Z,39.8
2023-02-02T07:18:51.000Z,39.7
2023-02-02T07:20:01.000Z,39.7
2023-02-02T07:21:11.000Z,39.7
2023-02-02T07:22:20.000Z,39.7
2023-02-02T07:23:29.520Z,39.7
2023-02-02T07:24:38.000Z,39.7
2023-02-02T07:25:47.801Z,39.7
2023-02-02T07:26:57.908Z,39.7
2023-02-02T07:28:08.000Z,39.7
2023-02-02T07:29:18.141Z,39.7
2023-02-02T07:30:28.000Z,39.7
2023-02-02T07:31:38.000Z,39.7
2023-02-02T07:32:48.000Z,39.7
2023-02-02T07:33:58.607Z,39.7
2023-02-02T07:35:08.725Z,39.7
2023-02-02T07:36:18.000Z,39.7
2023-02-02T07:37:28.000Z,39.7
2023-02-02T07:38:39.000Z,39.7
2023-02-02T07:39:49.000Z,39.7
2023-02-02T07:40:58.000Z,39.7
2023-02-02T07:42:08.432Z,39.6
2023-02-02T07:43:18.000Z,39.6
2023-02-02T07:44:28.676Z,39.5
2023-02-02T07:45:38.000Z,39.5
2023-02-02T07:46:48.000Z,39.5
2023-02-02T07:47:59.010Z,39.5
2023-02-02T07:49:08.155Z,39.5
2023-02-02T07:50:17.000Z,39.5
2023-02-02T07:51:27.402Z,39.5
2023-02-02T07:52:37.000Z,39.5
2023-02-02T07:53:46.000Z,39.4
2023-02-02T07:54:55.000Z,39.4
2023-02-02T07:56:05.908Z,39.4
2023-02-02T07:57:16.000Z,39.4
2023-02-02T07:58:26.000Z,39.4
2023-02-02T07:59:36.000Z,39.3
2023-02-02T08:00:46.000Z,39.3
2023-02-02T08:01:56.000Z,39.3
2023-02-02T08:03:06.000Z,39.3
2023-02-02T08:04:16.000Z,39.3
2023-02-02T08:05:26.000Z,39.3
2023-02-02T08:06:36.952Z,39.3
2023-02-02T08:07:47.066Z,39.2
2023-02-02T08:08:57.194Z,39.2
2023-02-02T08:10:06.316Z,39.2
2023-02-02T08:11:16.000Z,39.2
2023-02-02T08:12:26.000Z,39.2
2023-02-02T08:13:36.000Z,39.2
2023-02-02T08:14:46.000Z,39.2
2023-02-02T08:15:56.000Z,39.2
2023-02-02T08:17:07.024Z,39.1
2023-02-02T08:18:16.000Z,39.1
2023-02-02T08:19:25.288Z,39.1
2023-02-02T08:20:34.000Z,39.1
2023-02-02T08:21:43.000Z,39.1
2023-02-02T08:22:53.000Z,39.1
2023-02-02T08:24:03.807Z,39.1
2023-02-02T08:25:13.000Z,39
2023-02-02T08:26:24.000Z,39
2023-02-02T08:27:34.000Z,39
2023-02-02T08:28:44.253Z,39
2023-02-02T08:29:54.000Z,39
2023-02-02T08:31:04.494Z,39.1
2023-02-02T08:32:14.617Z,39.6
2023-02-02T08:33:24.000Z,39.7
2023-02-02T08:34:34.842Z,39.7
2023-02-02T08:35:44.000Z,40
2023-02-02T08:36:54.000Z,40.1
2023-02-02T08:38:04.201Z,40.2
2023-02-02T08:39:14.000Z,40.2
2023-02-02T08:40:24.436Z,40.4
2023-02-02T08:41:34.000Z,40.4
2023-02-02T08:42:44.665Z,40.5
2023-02-02T08:43:54.000Z,40.6
2023-02-02T08:45:03.926Z,40.3
2023-02-02T08:46:13.000Z,40.5
2023-02-02T08:47:22.000Z,40.5
2023-02-02T08:48:31.000Z,40.6
2023-02-02T08:49:41.453Z,40.6
2023-02-02T08:50:51.000Z,40.5
2023-02-02T08:52:01.694Z,40.6
2023-02-02T08:53:11.000Z,40.5
2023-02-02T08:54:21.000Z,40.6
2023-02-02T08:55:32.028Z,40.5
2023-02-02T08:56:42.000Z,40.6
2023-02-02T08:59:02.000Z,40.5
2023-02-02T09:00:12.500Z,40.6
2023-02-02T09:01:22.612Z,40.5
2023-02-02T09:02:32.000Z,40.5
2023-02-02T09:03:41.860Z,40.4
2023-02-02T09:04:51.972Z,40.4
2023-02-02T09:06:02.092Z,40.4
2023-02-02T09:07:12.000Z,40.3
2023-02-02T09:08:22.000Z,40.4
2023-02-02T09:09:32.440Z,40.4
2023-02-02T09:10:42.000Z,40.2
2023-02-02T09:11:52.000Z,40.3
2023-02-02T09:13:01.000Z,40.2
2023-02-02T09:14:10.951Z,40.2
2023-02-02T09:15:20.000Z,40.2
2023-02-02T09:16:29.218Z,40
2023-02-02T09:17:39.000Z,40.1
2023-02-02T09:18:49.000Z,40
2023-02-02T09:19:59.000Z,40
2023-02-02T09:21:09.682Z,40
2023-02-02T09:22:19.800Z,39.8
2023-02-02T09:23:29.000Z,40
2023-02-02T09:24:40.000Z,39.8
2023-02-02T09:25:50.151Z,39.8
2023-02-02T09:27:00.268Z,39.8
2023-02-02T09:28:10.000Z,39.6
2023-02-02T09:29:20.000Z,39.8
2023-02-02T09:30:30.000Z,39.6
2023-02-02T09:31:39.746Z,39.6
2023-02-02T09:32:49.000Z,39.7
2023-02-02T09:33:59.988Z,39.6
2023-02-02T09:35:10.000Z,39.5
2023-02-02T09:36:20.208Z,39.5
2023-02-02T09:37:30.327Z,39.4
2023-02-02T09:38:40.439Z,39.4
2023-02-02T09:39:49.588Z,39.4
2023-02-02T09:40:58.715Z,39.3
2023-02-02T09:42:07.000Z,39.3
2023-02-02T09:43:16.994Z,39.3
2023-02-02T09:44:27.107Z,39.3
2023-02-02T09:45:37.231Z,39.3
2023-02-02T09:46:47.000Z,39.2
2023-02-02T09:47:57.000Z,39.2
2023-02-02T09:49:07.000Z,39.2
2023-02-02T09:50:17.719Z,39.2
2023-02-02T09:51:26.824Z,39.1
2023-02-02T09:52:36.000Z,39.1
2023-02-02T09:53:47.000Z,39.1
2023-02-02T09:54:57.184Z,39
2023-02-02T09:56:07.000Z,39
2023-02-02T09:57:17.405Z,39
2023-02-02T09:58:27.000Z,38.9
2023-02-02T09:59:37.000Z,38.9
2023-02-02T10:00:47.000Z,38.9
2023-02-02T10:01:57.000Z,38.9
2023-02-02T10:03:07.984Z,38.8
2023-02-02T10:04:18.000Z,38.9
2023-02-02T10:05:28.000Z,39
2023-02-02T10:06:37.000Z,39
2023-02-02T10:07:46.000Z,39.2
2023-02-02T10:08:56.000Z,39.2
2023-02-02T10:10:06.000Z,39.3
2023-02-02T10:11:16.000Z,39.4
2023-02-02T10:12:26.955Z,39.5
2023-02-02T10:13:37.000Z,39.6
2023-02-02T10:14:47.186Z,39.6
2023-02-02T10:15:57.000Z,39.6
2023-02-02T10:17:07.000Z,39.6
2023-02-02T10:18:17.537Z,39.6
2023-02-02T10:19:27.655Z,39.7
2023-02-02T10:20:37.000Z,39.6
2023-02-02T10:21:47.000Z,39.7
2023-02-02T10:22:57.000Z,39.7
2023-02-02T10:24:07.000Z,39.8
2023-02-02T10:25:17.000Z,39.8
2023-02-02T10:26:27.377Z,39.7
2023-02-02T10:27:37.000Z,39.9
2023-02-02T10:28:47.601Z,39.7
2023-02-02T10:29:57.712Z,39.8
2023-02-02T10:31:06.856Z,39.8
2023-02-02T10:32:15.000Z,39.9
2023-02-02T10:33:25.129Z,39.8
2023-02-02T10:34:34.000Z,39.8
2023-02-02T10:35:44.373Z,39.8
2023-02-02T10:36:54.498Z,39.8
2023-02-02T10:38:04.611Z,39.8
2023-02-02T10:39:14.000Z,39.8
2023-02-02T10:40:24.000Z,39.8
2023-02-02T10:41:34.959Z,39.8
2023-02-02T10:42:45.000Z,39.9
2023-02-02T10:43:55.000Z,39.8
2023-02-02T10:45:05.304Z,39.7
2023-02-02T10:46:15.418Z,39.8
2023-02-02T10:47:25.000Z,39.7
2023-02-02T10:48:35.652Z,39.8
2023-02-02T10:49:44.000Z,39.8
2023-02-02T10:50:54.000Z,39.8
2023-02-02T10:52:05.017Z,39.7
2023-02-02T10:53:15.000Z,39.7
2023-02-02T10:54:25.248Z,39.7
2023-02-02T10:55:35.000Z,39.7
2023-02-02T10:56:45.480Z,39.7
2023-02-02T10:57:54.000Z,39.7
2023-02-02T10:59:03.751Z,39.6
2023-02-02T11:00:13.000Z,39.7
2023-02-02T11:01:23.999Z,39.6
2023-02-02T11:02:34.000Z,39.7
2023-02-02T11:03:44.000Z,39.7
2023-02-02T11:04:54.332Z,39.6
2023-02-02T11:06:04.446Z,39.7
2023-02-02T11:07:14.000Z,39.6
2023-02-02T11:08:24.000Z,39.6
2023-02-02T11:09:34.000Z,39.5
2023-02-02T11:10:44.912Z,39.6
2023-02-02T11:11:55.024Z,39.6
2023-02-02T11:13:05.143Z,39.5
2023-02-02T11:14:14.281Z,39.6
2023-02-02T11:15:24.000Z,39.5
2023-02-02T11:16:34.000Z,39.5
2023-02-02T11:17:44.623Z,39.5
2023-02-02T11:18:54.739Z,39.5
2023-02-02T11:20:04.000Z,39.5
2023-02-02T11:21:14.000Z,39.4
2023-02-02T11:22:24.000Z,39.5
2023-02-02T11:23:33.000Z,39.4
2023-02-02T11:24:42.394Z,39.4
2023-02-02T11:25:51.000Z,39.3
2023-02-02T11:27:01.636Z,39.1
2023-02-02T11:28:11.000Z,39.1
2023-02-02T11:29:21.869Z,39.2
2023-02-02T11:30:31.000Z,39
2023-02-02T11:31:42.000Z,39
2023-02-02T11:32:52.214Z,39.1
2023-02-02T11:34:02.000Z,39.1
2023-02-02T11:35:12.000Z,39.1
2023-02-02T11:36:22.564Z,39
2023-02-02T11:37:32.000Z,39
2023-02-02T11:38:42.000Z,39
2023-02-02T11:39:52.000Z,39
2023-02-02T11:41:02.000Z,39
2023-02-02T11:42:12.000Z,38.9
2023-02-02T11:43:22.000Z,38.9
2023-02-02T11:44:32.000Z,38.9
2023-02-02T11:45:42.513Z,38.9
2023-02-02T11:46:52.000Z,38.9
2023-02-02T11:48:02.000Z,38.9
2023-02-02T11:49:12.858Z,39
2023-02-02T11:50:22.000Z,38.9
2023-02-02T11:51:32.115Z,39
2023-02-02T11:52:41.000Z,39
2023-02-02T11:53:50.000Z,39.1
2023-02-02T11:54:59.000Z,39.1
2023-02-02T11:56:09.000Z,39
2023-02-02T11:57:19.766Z,39.1
2023-02-02T11:58:29.000Z,39.1
2023-02-02T11:59:39.000Z,39.1
2023-02-02T12:00:50.100Z,39.1
2023-02-02T12:02:00.000Z,39.1
2023-02-02T12:03:10.000Z,39.1
2023-02-02T12:04:20.000Z,39.1
2023-02-02T12:05:30.000Z,39.1
2023-02-02T12:06:40.000Z,39.1
2023-02-02T12:07:50.797Z,39.1
2023-02-02T12:09:00.000Z,39.1
2023-02-02T12:10:10.000Z,39.1
2023-02-02T12:11:20.000Z,39.1
2023-02-02T12:12:30.274Z,39.1
2023-02-02T12:13:40.000Z,39.1
2023-02-02T12:14:50.514Z,39.1
2023-02-02T12:16:00.000Z,39.1
2023-02-02T12:17:10.744Z,39.1
2023-02-02T12:18:19.877Z,39.1
2023-02-02T12:19:29.991Z,39.1
2023-02-02T12:20:39.124Z,39.2
2023-02-02T12:21:48.000Z,39.2
2023-02-02T12:22:57.000Z,39.2
2023-02-02T12:24:07.000Z,39.2
2023-02-02T12:25:17.000Z,39.2
2023-02-02T12:26:27.000Z,39.2
2023-02-02T12:27:37.871Z,39.3
2023-02-02T12:28:47.000Z,39.3
2023-02-02T12:29:58.000Z,39.3
2023-02-02T12:31:08.000Z,39.3
2023-02-02T12:32:18.000Z,39.3
2023-02-02T12:33:28.000Z,39.4
2023-02-02T12:34:38.000Z,39.3
2023-02-02T12:35:48.000Z,39.4
2023-02-02T12:36:58.000Z,39.4
2023-02-02T12:38:07.000Z,39.4
2023-02-02T12:39:18.000Z,39.4
2023-02-02T12:40:28.000Z,39.5
2023-02-02T12:41:38.000Z,39.5
2023-02-02T12:42:48.391Z,39.5
2023-02-02T12:43:58.000Z,39.5
2023-02-02T12:46:18.000Z,39.6
2023-02-02T12:47:27.000Z,39.6
2023-02-02T12:48:37.009Z,39.6
2023-02-02T12:49:46.000Z,39.6
2023-02-02T12:50:55.000Z,39.6
2023-02-02T12:52:05.000Z,39.7
2023-02-02T12:53:15.519Z,39.7
2023-02-02T12:54:25.000Z,39.7
2023-02-02T12:55:35.000Z,39.7
2023-02-02T12:56:45.000Z,39.7
2023-02-02T12:57:55.000Z,39.8
2023-02-02T12:59:06.106Z,40.7
2023-02-02T13:00:16.214Z,40
2023-02-02T13:01:26.000Z,40
2023-02-02T13:02:36.442Z,40
2023-02-02T13:03:46.000Z,40
2023-02-02T13:04:56.000Z,40
2023-02-02T13:06:05.000Z,40
2023-02-02T13:07:15.927Z,40
2023-02-02T13:08:26.000Z,40
2023-02-02T13:09:36.000Z,40.1
2023-02-02T13:10:46.000Z,40.2
2023-02-02T13:11:56.387Z,40.3
2023-02-02T13:13:06.000Z,40.5
2023-02-02T13:14:15.644Z,40.8
2023-02-02T13:15:24.792Z,40.9
2023-02-02T13:16:34.897Z,41
2023-02-02T13:17:45.000Z,41.1
2023-02-02T13:18:54.000Z,41.2
2023-02-02T13:20:03.000Z,41.3
2023-02-02T13:21:13.000Z,41.3
2023-02-02T13:22:23.000Z,41.4
2023-02-02T13:23:33.627Z,41.5
2023-02-02T13:24:43.000Z,41.6
2023-02-02T13:25:53.000Z,41.7
2023-02-02T13:27:03.982Z,41.6
2023-02-02T13:28:14.000Z,41.6
2023-02-02T13:29:24.000Z,41.7
2023-02-02T13:30:34.000Z,41.8
2023-02-02T13:31:44.441Z,41.8
2023-02-02T13:32:54.555Z,41.8
2023-02-02T13:34:04.677Z,41.9
2023-02-02T13:35:13.000Z,41.8
2023-02-02T13:36:23.000Z,41.8
2023-02-02T13:37:34.000Z,41.9
2023-02-02T13:38:44.152Z,42
2023-02-02T13:39:54.000Z,41.9
2023-02-02T13:41:04.000Z,42
2023-02-02T13:42:14.000Z,42
2023-02-02T13:43:23.000Z,42
2023-02-02T13:44:32.000Z,42
2023-02-02T13:45:41.000Z,41.9
2023-02-02T13:46:51.060Z,42
2023-02-02T13:48:01.000Z,42
2023-02-02T13:49:11.000Z,42
2023-02-02T13:50:21.000Z,42.1
2023-02-02T13:51:31.000Z,42
2023-02-02T13:52:41.631Z,42.1
2023-02-02T13:53:51.000Z,42.2
2023-02-02T13:55:01.881Z,42.2
2023-02-02T13:56:11.000Z,42.1
2023-02-02T13:57:22.000Z,42
2023-02-02T13:58:32.000Z,41.8
2023-02-02T13:59:42.000Z,41.6
2023-02-02T14:00:52.000Z,41.4
2023-02-02T14:02:01.573Z,41.3
2023-02-02T14:03:11.693Z,41.2
2023-02-02T14:04:21.000Z,41.2
2023-02-02T14:05:31.000Z,41.2
2023-02-02T14:06:42.000Z,41.2
2023-02-02T14:07:52.000Z,41.2
2023-02-02T14:09:02.000Z,41.2
2023-02-02T14:10:11.414Z,41.2
2023-02-02T14:11:20.000Z,41.1
2023-02-02T14:12:30.000Z,41.1
2023-02-02T14:13:39.803Z,41.1
2023-02-02T14:14:48.000Z,41.2
2023-02-02T14:15:59.000Z,41.1
2023-02-02T14:17:09.000Z,41.1
2023-02-02T14:18:19.000Z,41.1
2023-02-02T14:19:29.401Z,41.1
2023-02-02T14:20:39.000Z,41.1
2023-02-02T14:21:49.000Z,41.2
2023-02-02T14:22:59.000Z,41.2
2023-02-02T14:24:09.000Z,41.1
2023-02-02T14:25:19.988Z,41.1
2023-02-02T14:26:30.000Z,41.2
2023-02-02T14:27:40.212Z,41.1
2023-02-02T14:28:50.000Z,41.2
2023-02-02T14:29:59.458Z,41.1
2023-02-02T14:31:09.000Z,41.2
2023-02-02T14:32:19.000Z,41.1
2023-02-02T14:33:29.000Z,41.1
2023-02-02T14:34:39.000Z,41
2023-02-02T14:35:50.000Z,41.1
2023-02-02T14:37:00.159Z,41.1
2023-02-02T14:38:09.000Z,41
2023-02-02T14:39:18.000Z,41
2023-02-02T14:40:28.000Z,41.1
2023-02-02T14:41:38.656Z,41.1
2023-02-02T14:42:47.000Z,41.1
2023-02-02T14:43:56.936Z,41
2023-02-02T14:45:07.000Z,41
2023-02-02T14:46:17.000Z,41
2023-02-02T14:47:27.281Z,41.1
2023-02-02T14:48:37.403Z,41
2023-02-02T14:49:47.515Z,41
2023-02-02T14:50:57.630Z,41.1
2023-02-02T14:52:07.000Z,41
2023-02-02T14:53:17.000Z,41
2023-02-02T14:54:27.000Z,41
2023-02-02T14:55:38.000Z,41.1
2023-02-02T14:56:48.212Z,41
2023-02-02T14:57:58.000Z,41
2023-02-02T14:59:07.453Z,41
2023-02-02T15:00:17.000Z,41
2023-02-02T15:01:27.000Z,41
2023-02-02T15:02:37.000Z,41
2023-02-02T15:03:47.930Z,41.1
2023-02-02T15:04:58.000Z,41.2
2023-02-02T15:06:08.000Z,41.3
2023-02-02T15:07:17.000Z,41.2
2023-02-02T15:08:26.428Z,41.1
2023-02-02T15:09:36.000Z,41.1
2023-02-02T15:10:46.660Z,41
2023-02-02T15:11:56.000Z,41
2023-02-02T15:13:06.899Z,40.9
2023-02-02T15:14:17.000Z,40.9
2023-02-02T15:15:27.123Z,40.8
2023-02-02T15:16:37.000Z,40.8
2023-02-02T15:17:47.000Z,40.8
2023-02-02T15:18:57.000Z,40.7
2023-02-02T15:20:07.000Z,40.7
2023-02-02T15:21:17.698Z,40.7
2023-02-02T15:22:27.000Z,40.7
2023-02-02T15:23:36.000Z,40.7
2023-02-02T15:24:47.000Z,40.6
2023-02-02T15:25:57.179Z,40.7
2023-02-02T15:27:07.000Z,40.6
2023-02-02T15:28:17.000Z,40.6
2023-02-02T15:29:27.000Z,40.6
2023-02-02T15:30:37.643Z,40.6
2023-02-02T15:31:46.000Z,40.6
2023-02-02T15:32:55.000Z,40.6
2023-02-02T15:34:05.058Z,40.6
2023-02-02T15:35:14.193Z,40.6
2023-02-02T15:36:24.000Z,40.6
2023-02-02T15:37:34.000Z,40.6
2023-02-02T15:38:44.000Z,40.5
2023-02-02T15:39:54.000Z,40.5
2023-02-02T15:41:04.000Z,40.5
2023-02-02T15:42:14.888Z,40.5
2023-02-02T15:43:25.001Z,40.5